TimeCST,TemperatureF,Dew PointF,Humidity,Sea Level PressureIn,VisibilityMPH,Wind Direction,Wind SpeedMPH,Gust SpeedMPH,PrecipitationIn,Events,Conditions,WindDirDegrees,DateUTC
12:54 AM,10.9,7.0,84,30.40,10.0,SSW,4.6,-,N/A,,Clear,200,2013-01-14 06:54:00
1:54 AM,10.0,5.0,80,30.43,10.0,SW,3.5,-,N/A,,Clear,220,2013-01-14 07:54:00
2:54 AM,12.0,7.0,80,30.46,10.0,WSW,4.6,-,N/A,,Clear,240,2013-01-14 08:54:00
3:54 AM,10.4,6.8,85,30.43,10.0,SW,4.6,-,N/A,,Clear,230,2013-01-14 09:54:00
4:54 AM,10.9,6.1,81,30.47,10.0,West,3.5,-,N/A,,Clear,270,2013-01-14 10:54:00
5:54 AM,10.0,5.0,80,30.47,10.0,NW,5.8,-,N/A,,Clear,320,2013-01-14 11:54:00
6:54 AM,9.0,5.0,84,30.48,10.0,NW,5.8,-,N/A,,Clear,320,2013-01-14 12:54:00
7:54 AM,10.9,5.0,77,30.47,10.0,NNW,6.9,-,N/A,,Clear,340,2013-01-14 13:54:00
8:54 AM,16.0,8.1,71,30.48,10.0,North,5.8,-,N/A,,Clear,360,2013-01-14 14:54:00
9:54 AM,16.0,7.0,68,30.53,10.0,NW,6.9,-,N/A,,Clear,320,2013-01-14 15:54:00
10:54 AM,17.1,8.1,68,30.51,10.0,NNW,5.8,-,N/A,,Clear,330,2013-01-14 16:54:00
11:54 AM,19.0,8.1,62,30.50,10.0,NNW,3.5,-,N/A,,Clear,330,2013-01-14 17:54:00
12:54 PM,21.2,6.8,54,30.44,10.0,NNW,4.6,-,N/A,,Clear,340,2013-01-14 18:54:00
1:54 PM,23.0,8.6,54,30.43,10.0,NE,4.6,-,N/A,,Clear,40,2013-01-14 19:54:00
2:54 PM,23.0,9.0,55,30.48,10.0,Calm,Calm,-,N/A,,Clear,0,2013-01-14 20:54:00
3:54 PM,24.1,10.0,55,30.48,10.0,ENE,4.6,-,N/A,,Clear,60,2013-01-14 21:54:00
4:54 PM,23.0,10.0,58,30.47,10.0,Calm,Calm,-,N/A,,Clear,0,2013-01-14 22:54:00
5:54 PM,19.9,9.0,62,30.48,10.0,NNE,3.5,-,N/A,,Clear,30,2013-01-14 23:54:00
6:54 PM,17.1,9.0,71,30.48,10.0,NNE,4.6,-,N/A,,Clear,20,2013-01-15 00:54:00
7:54 PM,18.0,9.0,68,30.46,10.0,NE,3.5,-,N/A,,Clear,40,2013-01-15 01:54:00
8:54 PM,17.1,9.0,71,30.45,10.0,ENE,3.5,-,N/A,,Clear,60,2013-01-15 02:54:00
9:54 PM,15.1,9.0,77,30.46,10.0,Calm,Calm,-,N/A,,Clear,0,2013-01-15 03:54:00
10:54 PM,16.0,8.1,71,30.46,10.0,Calm,Calm,-,N/A,,Clear,0,2013-01-15 04:54:00
11:54 PM,15.1,8.1,74,30.46,10.0,NE,3.5,-,N/A,,Clear,40,2013-01-15 05:54:00